Погода Шики-Шикина неделю

Баия, Бразилия

15 - 21 июля
  • 15июля
    Сегодня
    +19°
    +33°
    Ясно и безоблачно
    ВремяПогодаТемператураВлажностьДавлениеВетер, м/сВероятность осадков
    00:00Ясно и безоблачно+22°C59 %727 мм4.7 м/с5 %
    03:00Ясно и безоблачно+21°C69 %726 мм5.7 м/с5 %
    06:00Ясно и безоблачно+19°C76 %726 мм6.1 м/с5 %
    09:00Ясно и безоблачно+23°C56 %728 мм7.6 м/с2 %
    12:00Ясно и безоблачно+29°C32 %727 мм5.3 м/с5 %
    15:00Ясно и безоблачно+33°C28 %726 мм4.8 м/с5 %
    18:00Ясно и безоблачно+28°C36 %726 мм4.7 м/с5 %
    21:00Ясно и безоблачно+26°C44 %727 мм6.0 м/с5 %
  • 16июля
    Вторник
    +19°
    +33°
    Ясно и безоблачно
    ВремяПогодаТемператураВлажностьДавлениеВетер, м/сВероятность осадков
    00:00Ясно и безоблачно+23°C52 %727 мм6.5 м/с5 %
    03:00Ясно и безоблачно+21°C63 %726 мм6.1 м/с5 %
    06:00Ясно и безоблачно+19°C74 %727 мм6.7 м/с5 %
    09:00Ясно и безоблачно+24°C54 %729 мм7.4 м/с5 %
    12:00Ясно и безоблачно+29°C32 %728 мм5.8 м/с5 %
    15:00Ясно и безоблачно+32°C27 %726 мм5.3 м/с5 %
    18:00Ясно и безоблачно+28°C32 %726 мм4.1 м/с5 %
    21:00Ясно и безоблачно+27°C46 %728 мм4.8 м/с5 %
  • 17июля
    Среда
    +19°
    +33°
    Практически безоблачно
    ВремяПогодаТемператураВлажностьДавлениеВетер, м/сВероятность осадков
    00:00Ясно и безоблачно+23°C62 %728 мм4.0 м/с5 %
    03:00Ясно и безоблачно+21°C72 %727 мм4.6 м/с2 %
    06:00Ясно и безоблачно+20°C77 %727 мм4.2 м/с3 %
    09:00Практически безоблачно+25°C52 %729 мм7.3 м/с3 %
    12:00Практически безоблачно+30°C33 %727 мм5.6 м/с3 %
    15:00Практически безоблачно+33°C26 %725 мм5.0 м/с5 %
    18:00Практически безоблачно+29°C32 %725 мм5.1 м/с5 %
    21:00Ясно и безоблачно+26°C48 %727 мм6.4 м/с5 %
  • 18июля
    Четверг
    +21°
    +33°
    Ясно и безоблачно
    ВремяПогодаТемператураВлажностьДавлениеВетер, м/сВероятность осадков
    00:00Ясно и безоблачно+23°C57 %726 мм6.4 м/с5 %
    03:00Ясно и безоблачно+21°C61 %725 мм6.4 м/с5 %
    06:00Ясно и безоблачно+20°C63 %726 мм6.3 м/с5 %
    09:00Ясно и безоблачно+23°C49 %728 мм6.0 м/с5 %
    12:00Ясно и безоблачно+29°C30 %727 мм4.5 м/с5 %
    15:00Ясно и безоблачно+33°C26 %725 мм3.1 м/с5 %
    18:00Ясно и безоблачно+29°C30 %725 мм2.9 м/с5 %
    21:00Ясно и безоблачно+27°C45 %727 мм5.7 м/с5 %
Мы используем cookies
Соглашаюсь